Time;durP1;ratioP1;P1;durP2;ratioP2;P2;SDS_P1;SDS_P2;PMS_P1;PMS_P2;Temp;Humidity;BMP_temperature;BMP_pressure;BME280_temperature;BME280_humidity;BME280_pressure;Samples;Min_cycle;Max_cycle;Signal;HPM_P1;HPM_P2
2021/07/30 00:00:36;;;;;;;6.70;4.97;;;;;;;20.08;52.40;97643.78;8418902;28;20234;-64
2021/07/30 00:04:58;;;;;;;5.83;4.50;;;;;;;20.06;52.67;97644.88;8388494;28;20515;-64
2021/07/30 00:09:16;;;;;;;6.03;5.07;;;;;;;19.98;52.87;97642.94;8387971;28;20207;-64
2021/07/30 00:13:49;;;;;;;5.70;4.40;;;;;;;19.89;53.19;97643.75;8387230;28;20228;-64
2021/07/30 00:18:12;;;;;;;5.50;4.23;;;;;;;19.94;52.90;97638.91;8387516;28;20199;-64
2021/07/30 00:22:28;;;;;;;7.70;5.00;;;;;;;19.81;53.16;97652.28;8387743;28;20226;-64
2021/07/30 00:26:50;;;;;;;6.60;4.70;;;;;;;19.71;53.33;97652.25;8386832;28;20206;-64
2021/07/30 00:31:09;;;;;;;6.27;4.63;;;;;;;19.69;53.76;97648.09;8390457;28;20249;-64
2021/07/30 00:35:26;;;;;;;6.23;4.20;;;;;;;19.68;53.70;97652.50;8420091;28;20389;-64
2021/07/30 00:39:32;;;;;;;6.67;4.67;;;;;;;19.64;53.89;97653.72;8420149;28;20391;-64
2021/07/30 00:43:51;;;;;;;8.07;4.50;;;;;;;19.67;53.77;97653.47;8420026;28;20266;-64
2021/07/30 00:48:02;;;;;;;15.00;4.60;;;;;;;19.49;53.67;97655.06;8420192;28;20206;-64
2021/07/30 00:52:21;;;;;;;6.67;4.70;;;;;;;19.48;53.81;97651.59;8419717;28;20231;-64
2021/07/30 00:56:31;;;;;;;5.23;4.10;;;;;;;19.43;54.20;97652.97;8418750;28;20199;-64
2021/07/30 01:00:52;;;;;;;7.33;4.60;;;;;;;19.47;54.04;97646.47;8418590;28;20249;-64
2021/07/30 01:05:17;;;;;;;5.27;4.60;;;;;;;19.46;54.08;97639.56;8387381;28;20262;-64
2021/07/30 01:09:30;;;;;;;4.77;4.27;;;;;;;19.50;53.84;97639.16;8385697;28;20203;-65
2021/07/30 01:13:48;;;;;;;5.83;4.40;;;;;;;19.37;53.92;97632.47;8384453;28;20236;-64
2021/07/30 01:18:07;;;;;;;5.07;4.57;;;;;;;19.30;54.13;97635.59;8385962;28;20237;-64
2021/07/30 01:22:27;;;;;;;6.67;4.40;;;;;;;19.22;54.14;97635.44;8384834;28;20277;-64
2021/07/30 01:26:53;;;;;;;7.50;4.50;;;;;;;19.21;54.22;97638.19;8386003;28;20201;-64
2021/07/30 01:31:10;;;;;;;8.40;4.27;;;;;;;19.21;53.97;97636.41;8385102;28;20200;-64
2021/07/30 01:35:34;;;;;;;6.90;4.60;;;;;;;19.08;54.38;97641.03;8385305;28;20203;-64
2021/07/30 01:40:01;;;;;;;10.53;4.70;;;;;;;19.07;54.42;97642.81;8385153;28;20384;-64
2021/07/30 01:44:20;;;;;;;4.80;4.10;;;;;;;19.02;54.34;97642.38;8385110;28;20210;-64
2021/07/30 01:48:28;;;;;;;7.50;4.50;;;;;;;19.04;54.33;97637.84;8384421;28;20200;-64
2021/07/30 01:52:53;;;;;;;5.67;4.60;;;;;;;18.97;54.50;97646.34;8383874;28;20236;-63
2021/07/30 01:57:11;;;;;;;6.23;4.67;;;;;;;19.01;54.13;97637.25;8382392;28;20227;-64
2021/07/30 02:01:36;;;;;;;7.77;4.30;;;;;;;18.89;54.58;97637.31;8384488;28;20243;-64
2021/07/30 02:06:00;;;;;;;6.97;4.70;;;;;;;18.92;54.78;97636.22;8380302;28;20200;-64
2021/07/30 02:10:21;;;;;;;5.97;4.50;;;;;;;18.86;54.75;97640.19;8383810;28;20269;-64
2021/07/30 02:14:33;;;;;;;6.63;4.40;;;;;;;18.83;54.37;97643.09;8383662;28;20239;-64
2021/07/30 02:18:49;;;;;;;13.10;4.73;;;;;;;18.76;54.75;97641.91;8383136;28;20204;-64
2021/07/30 02:22:57;;;;;;;6.63;4.27;;;;;;;18.77;54.47;97638.31;8382917;28;20235;-64
2021/07/30 02:27:14;;;;;;;5.80;4.83;;;;;;;18.74;54.29;97638.56;8383552;28;20266;-64
2021/07/30 02:31:26;;;;;;;7.03;4.13;;;;;;;18.66;54.53;97633.97;8383083;28;20482;-64
2021/07/30 02:36:01;;;;;;;5.93;4.43;;;;;;;18.75;54.66;97643.69;8383131;28;20211;-64
2021/07/30 02:40:24;;;;;;;8.30;4.50;;;;;;;18.78;54.51;97631.28;8381651;28;20222;-64
2021/07/30 02:44:40;;;;;;;6.47;4.10;;;;;;;18.73;54.71;97636.91;8381724;28;20203;-64
2021/07/30 02:48:55;;;;;;;7.67;4.40;;;;;;;18.36;55.59;97625.03;8383288;28;20375;-64
2021/07/30 02:53:13;;;;;;;9.80;4.40;;;;;;;18.64;54.56;97629.78;8382387;28;20231;-64
2021/07/30 02:57:32;;;;;;;4.87;4.10;;;;;;;18.59;54.84;97631.97;8382474;28;20206;-64
2021/07/30 03:01:44;;;;;;;7.60;4.10;;;;;;;18.52;54.73;97635.13;8382292;28;20305;-64
2021/07/30 03:06:00;;;;;;;6.17;4.23;;;;;;;18.45;54.83;97623.47;8382552;28;20492;-64
2021/07/30 03:10:28;;;;;;;5.13;4.03;;;;;;;18.37;55.08;97618.00;8382192;28;20490;-64
2021/07/30 03:14:45;;;;;;;6.13;4.30;;;;;;;18.48;54.56;97625.81;8381775;28;20223;-64
2021/07/30 03:19:03;;;;;;;8.17;4.30;;;;;;;18.43;54.75;97624.53;8382555;28;20199;-65
2021/07/30 03:23:14;;;;;;;5.43;4.30;;;;;;;18.43;54.71;97614.03;8382559;28;20408;-64
2021/07/30 03:27:28;;;;;;;10.77;4.60;;;;;;;18.37;55.11;97612.75;8381822;28;20495;-64
2021/07/30 03:31:52;;;;;;;10.10;4.87;;;;;;;18.38;54.59;97606.56;8381841;28;20208;-64
2021/07/30 03:36:02;;;;;;;5.70;4.90;;;;;;;18.36;54.63;97598.00;8387868;28;20276;-65
2021/07/30 03:40:13;;;;;;;7.37;5.17;;;;;;;18.30;55.23;97599.31;8388989;28;20203;-64
2021/07/30 03:44:27;;;;;;;8.57;5.20;;;;;;;18.30;55.04;97603.75;8387010;28;20203;-64
2021/07/30 03:48:41;;;;;;;5.57;4.77;;;;;;;18.31;55.45;97598.34;8387554;28;20270;-65
2021/07/30 03:53:05;;;;;;;6.17;4.97;;;;;;;18.29;55.16;97597.66;8387663;28;20232;-64
2021/07/30 03:57:28;;;;;;;12.40;5.63;;;;;;;18.26;54.98;97597.91;8388437;28;20227;-64
2021/07/30 04:01:48;;;;;;;9.30;5.30;;;;;;;18.07;55.62;97600.38;8387829;28;20419;-63
2021/07/30 04:06:14;;;;;;;10.33;5.60;;;;;;;17.94;55.79;97603.97;8387748;28;20433;-64
2021/07/30 04:10:32;;;;;;;7.53;5.70;;;;;;;17.91;55.89;97606.81;8387114;28;20494;-65
2021/07/30 04:14:50;;;;;;;7.30;5.60;;;;;;;17.73;56.75;97600.41;8388155;28;20297;-64
2021/07/30 04:19:16;;;;;;;12.00;6.00;;;;;;;17.89;56.37;97606.09;8385876;28;20389;-64
2021/07/30 04:23:29;;;;;;;9.90;5.70;;;;;;;17.86;56.94;97609.00;8387707;28;20203;-66
2021/07/30 04:27:50;;;;;;;6.33;5.70;;;;;;;18.07;55.85;97600.38;8387656;28;20212;-64
2021/07/30 04:32:12;;;;;;;7.33;5.53;;;;;;;17.96;56.36;97611.72;8387232;28;20228;-64
2021/07/30 04:36:44;;;;;;;7.13;5.70;;;;;;;18.24;56.29;97612.06;8384672;28;20223;-64
2021/07/30 04:41:03;;;;;;;9.60;6.63;;;;;;;17.89;57.11;97608.72;8384690;28;20208;-64
2021/07/30 04:45:14;;;;;;;9.33;6.13;;;;;;;17.81;57.86;97610.28;8384319;28;20218;-64
2021/07/30 04:49:28;;;;;;;7.20;5.90;;;;;;;18.01;57.13;97611.31;8387102;28;20200;-64
2021/07/30 04:53:51;;;;;;;10.57;6.60;;;;;;;18.10;56.97;97608.78;8386281;28;20235;-64
2021/07/30 04:58:02;;;;;;;8.40;6.20;;;;;;;18.14;57.22;97612.84;8386692;28;20200;-64
2021/07/30 05:02:20;;;;;;;8.73;6.13;;;;;;;18.21;57.22;97614.97;8385353;28;20239;-64
2021/07/30 05:06:28;;;;;;;8.97;5.90;;;;;;;18.22;57.53;97614.84;8395867;28;20199;-65
2021/07/30 05:10:40;;;;;;;7.17;6.47;;;;;;;17.93;58.26;97611.94;8401086;28;20192;-64
2021/07/30 05:14:53;;;;;;;11.70;6.17;;;;;;;17.95;58.29;97612.66;8401108;28;20576;-63
2021/07/30 05:19:01;;;;;;;13.50;9.07;;;;;;;17.81;58.72;97605.88;8401001;28;20203;-64
2021/07/30 05:23:09;;;;;;;10.07;6.63;;;;;;;17.99;58.71;97611.44;8399463;28;20314;-64
2021/07/30 05:27:20;;;;;;;8.50;6.80;;;;;;;17.44;60.45;97619.25;8403841;28;20294;-64
2021/07/30 05:31:30;;;;;;;10.67;7.00;;;;;;;18.03;58.80;97598.94;8397561;28;20191;-64
2021/07/30 05:35:37;;;;;;;10.40;6.80;;;;;;;18.31;57.69;97594.91;8400940;28;20225;-65
2021/07/30 05:39:47;;;;;;;7.97;6.30;;;;;;;18.35;57.52;97599.78;8401180;28;20199;-64
2021/07/30 05:43:55;;;;;;;8.70;6.53;;;;;;;18.53;56.98;97599.22;8399768;28;20195;-64
2021/07/30 05:48:01;;;;;;;11.23;7.03;;;;;;;18.55;56.72;97606.00;8400855;28;20214;-64
2021/07/30 05:52:16;;;;;;;7.43;5.80;;;;;;;19.17;57.40;97608.75;8411501;28;20215;-63
2021/07/30 05:56:29;;;;;;;6.60;5.10;;;;;;;19.65;57.69;97599.41;8416986;28;20227;-71
2021/07/30 06:00:46;;;;;;;8.50;5.37;;;;;;;20.06;57.30;97593.16;8417554;28;20243;-71
2021/07/30 06:05:07;;;;;;;7.80;5.83;;;;;;;20.35;55.14;97594.97;8416438;28;20491;-71
2021/07/30 06:09:13;;;;;;;9.30;5.90;;;;;;;20.03;54.84;97590.81;8417681;28;20199;-71
2021/07/30 06:13:18;;;;;;;10.57;5.90;;;;;;;20.48;53.97;97594.69;8417327;28;20234;-71
2021/07/30 06:17:23;;;;;;;8.23;5.37;;;;;;;20.78;53.58;97600.78;8417277;28;20205;-71
2021/07/30 06:21:26;;;;;;;10.67;6.70;;;;;;;20.91;52.95;97598.69;8417322;28;20561;-70
2021/07/30 06:25:33;;;;;;;10.50;6.10;;;;;;;21.15;52.49;97600.00;8417111;28;20540;-71
2021/07/30 06:29:38;;;;;;;11.33;5.57;;;;;;;21.47;51.69;97605.72;8416977;28;20202;-71
2021/07/30 06:33:45;;;;;;;9.27;6.47;;;;;;;21.52;50.60;97600.03;8416714;28;20223;-72
2021/07/30 06:37:49;;;;;;;8.67;5.40;;;;;;;21.85;50.75;97595.13;8401800;28;20203;-72
2021/07/30 06:41:57;;;;;;;13.03;6.00;;;;;;;22.04;49.54;97602.09;8390166;28;20390;-71
2021/07/30 06:46:02;;;;;;;10.17;5.33;;;;;;;22.18;50.28;97600.72;8391075;28;20199;-71
2021/07/30 06:50:27;;;;;;;6.53;5.90;;;;;;;22.29;48.99;97597.06;8383243;28;20207;-71
2021/07/30 06:54:49;;;;;;;9.03;5.40;;;;;;;22.53;49.06;97599.94;8382443;28;20540;-71
2021/07/30 06:59:15;;;;;;;6.17;5.00;;;;;;;22.73;48.91;97600.59;8382180;28;20273;-71
2021/07/30 07:03:25;;;;;;;8.53;5.60;;;;;;;22.73;48.25;97605.03;8400551;28;20212;-70
2021/07/30 07:07:50;;;;;;;10.87;5.77;;;;;;;23.01;47.69;97597.81;8415054;28;20216;-71
2021/07/30 07:12:13;;;;;;;10.07;4.73;;;;;;;23.36;46.23;97596.03;8415733;28;20205;-70
2021/07/30 07:16:32;;;;;;;9.37;4.30;;;;;;;23.73;46.10;97593.06;8415972;28;20428;-71
2021/07/30 07:20:38;;;;;;;8.50;5.20;;;;;;;23.52;46.61;97584.72;8416196;28;20205;-71
2021/07/30 07:24:57;;;;;;;8.10;4.40;;;;;;;23.74;44.65;97583.28;8415330;28;20207;-72
2021/07/30 07:29:02;;;;;;;8.30;4.30;;;;;;;23.65;45.27;97584.28;8415745;28;20205;-72
2021/07/30 07:33:12;;;;;;;9.53;4.20;;;;;;;24.20;44.16;97581.97;8414966;28;20209;-71
2021/07/30 07:37:34;;;;;;;6.30;4.10;;;;;;;24.62;43.16;97574.88;8415198;28;20237;-71
2021/07/30 07:41:49;;;;;;;12.20;4.03;;;;;;;24.57;42.51;97566.63;8414746;28;20206;-71
2021/07/30 07:45:55;;;;;;;5.27;3.60;;;;;;;24.16;42.97;97567.41;8415193;28;20264;-72
2021/07/30 07:50:04;;;;;;;6.03;3.53;;;;;;;24.19;43.93;97561.78;8415440;28;20214;-72
2021/07/30 07:54:12;;;;;;;4.70;3.50;;;;;;;24.58;41.83;97565.63;8414884;28;20301;-72
2021/07/30 07:58:21;;;;;;;9.10;3.97;;;;;;;24.54;43.24;97564.28;8412959;28;20323;-70
2021/07/30 08:02:24;;;;;;;8.70;3.50;;;;;;;25.11;41.68;97563.38;8410718;28;20230;-68
2021/07/30 08:06:28;;;;;;;15.33;4.13;;;;;;;25.29;42.11;97558.72;8415161;28;20288;-67
2021/07/30 08:10:33;;;;;;;14.83;4.40;;;;;;;25.74;41.08;97556.34;8415242;28;20203;-68
2021/07/30 08:14:38;;;;;;;6.80;3.33;;;;;;;25.59;39.04;97550.13;8415096;28;20230;-68
2021/07/30 08:18:42;;;;;;;5.83;3.33;;;;;;;26.28;38.54;97547.59;8413907;28;20227;-69
2021/07/30 08:22:45;;;;;;;7.83;3.40;;;;;;;26.61;38.08;97547.34;8420578;28;20376;-75
2021/07/30 08:26:50;;;;;;;6.17;3.17;;;;;;;26.52;35.88;97547.38;8420750;28;20207;-68
2021/07/30 08:30:55;;;;;;;5.23;3.00;;;;;;;26.29;36.77;97544.75;8411613;28;20551;-68
2021/07/30 08:34:59;;;;;;;5.13;3.00;;;;;;;26.85;36.85;97541.78;8404904;28;20223;-68
2021/07/30 08:39:02;;;;;;;3.37;2.80;;;;;;;26.90;35.07;97541.22;8400844;28;20208;-67
2021/07/30 08:43:06;;;;;;;8.17;3.17;;;;;;;27.26;34.71;97536.06;8402296;28;20192;-68
2021/07/30 08:47:11;;;;;;;5.07;2.73;;;;;;;27.48;34.41;97530.81;8402183;28;20265;-68
2021/07/30 08:51:16;;;;;;;3.10;2.60;;;;;;;27.53;34.56;97532.91;8404681;28;20226;-70
2021/07/30 08:55:20;;;;;;;2.87;2.53;;;;;;;27.87;34.61;97530.44;8402001;28;20219;-70
2021/07/30 08:59:23;;;;;;;5.60;3.83;;;;;;;28.15;34.35;97531.53;8401552;28;20201;-72
2021/07/30 09:03:37;;;;;;;5.47;3.87;;;;;;;28.05;34.07;97529.22;8401494;28;20228;-69
2021/07/30 09:07:41;;;;;;;6.40;3.37;;;;;;;27.26;34.86;97545.84;8385588;28;20419;-70
2021/07/30 09:11:44;;;;;;;9.73;3.90;;;;;;;27.25;35.36;97534.41;8385698;28;20520;-71
2021/07/30 09:15:49;;;;;;;4.73;3.57;;;;;;;27.59;33.36;97533.00;8385810;28;20277;-66
2021/07/30 09:20:04;;;;;;;4.07;3.20;;;;;;;28.00;34.14;97527.09;8386080;28;20205;-67
2021/07/30 09:24:08;;;;;;;6.23;3.30;;;;;;;28.30;33.58;97526.16;8385870;28;20210;-66
2021/07/30 09:28:11;;;;;;;4.60;3.33;;;;;;;28.42;33.31;97514.78;8413360;28;20213;-66
2021/07/30 09:32:16;;;;;;;6.87;3.30;;;;;;;28.50;33.17;97508.47;8418429;28;20234;-68
2021/07/30 09:36:20;;;;;;;4.07;2.90;;;;;;;28.79;32.79;97504.84;8418710;28;20232;-67
2021/07/30 09:40:23;;;;;;;4.30;3.37;;;;;;;28.36;32.61;97506.75;8418638;28;20209;-67
2021/07/30 09:44:26;;;;;;;4.37;3.70;;;;;;;28.84;31.72;97494.44;8418399;28;20205;-67
2021/07/30 09:48:47;;;;;;;7.67;3.23;;;;;;;29.08;31.44;97494.97;8418264;28;20210;-67
2021/07/30 09:52:53;;;;;;;5.47;3.80;;;;;;;27.86;33.36;97480.88;8418095;28;20220;-68
2021/07/30 09:56:56;;;;;;;6.00;3.33;;;;;;;28.72;31.76;97473.84;8417993;28;20238;-64
2021/07/30 10:00:59;;;;;;;7.27;3.33;;;;;;;28.38;31.04;97480.75;8417906;28;20565;-64
2021/07/30 10:05:06;;;;;;;4.70;3.10;;;;;;;28.89;31.08;97472.50;8385685;28;20388;-64
2021/07/30 10:09:11;;;;;;;4.13;3.10;;;;;;;28.96;31.85;97470.72;8384282;28;20386;-64
2021/07/30 10:13:18;;;;;;;4.93;3.43;;;;;;;29.04;30.35;97467.88;8383880;28;20267;-64
2021/07/30 10:17:33;;;;;;;3.57;3.23;;;;;;;29.13;29.87;97463.25;8384317;28;20234;-64
2021/07/30 10:21:39;;;;;;;4.33;3.63;;;;;;;29.17;29.77;97453.00;8387446;28;20498;-64
2021/07/30 10:25:52;;;;;;;4.13;3.57;;;;;;;29.47;29.40;97442.00;8416902;28;20195;-64
2021/07/30 10:30:05;;;;;;;6.47;3.60;;;;;;;29.51;30.19;97443.25;8417138;28;20250;-64
2021/07/30 10:34:08;;;;;;;5.43;3.40;;;;;;;29.37;29.78;97437.88;8416903;28;20208;-63
2021/07/30 10:38:16;;;;;;;3.60;3.30;;;;;;;29.70;29.56;97428.31;8416764;28;20209;-64
2021/07/30 10:42:22;;;;;;;5.63;3.40;;;;;;;29.73;30.44;97435.94;8415757;28;20212;-65
2021/07/30 10:46:26;;;;;;;3.73;3.30;;;;;;;29.57;29.51;97431.78;8409551;28;20238;-65
2021/07/30 10:50:44;;;;;;;4.43;3.63;;;;;;;30.02;30.63;97430.22;8404448;28;20302;-66
2021/07/30 10:54:50;;;;;;;5.17;3.53;;;;;;;30.15;29.06;97423.22;8385704;28;20556;-68
2021/07/30 10:59:06;;;;;;;6.80;3.40;;;;;;;29.63;29.31;97414.97;8391404;28;20201;-67
2021/07/30 11:03:09;;;;;;;5.80;3.40;;;;;;;29.93;28.68;97417.25;8391772;28;20237;-67
2021/07/30 11:07:32;;;;;;;4.90;3.63;;;;;;;29.89;28.04;97408.88;8397658;28;20259;-66
2021/07/30 11:11:36;;;;;;;6.13;3.07;;;;;;;30.04;28.63;97400.63;8385692;28;20541;-66
2021/07/30 11:15:40;;;;;;;6.70;3.70;;;;;;;29.81;28.50;97398.38;8385414;28;20222;-66
2021/07/30 11:19:46;;;;;;;5.40;3.30;;;;;;;30.15;28.61;97400.00;8409774;28;20202;-68
2021/07/30 11:23:49;;;;;;;3.60;3.00;;;;;;;30.44;28.64;97400.63;8393313;28;20214;-66
2021/07/30 11:27:58;;;;;;;4.30;3.00;;;;;;;30.11;27.56;97397.97;8401819;28;20283;-67
2021/07/30 11:32:03;;;;;;;4.40;3.23;;;;;;;30.41;27.47;97401.06;8395727;28;20195;-67
2021/07/30 11:36:13;;;;;;;7.80;3.40;;;;;;;30.71;27.51;97395.22;8390352;28;20226;-67
2021/07/30 11:40:16;;;;;;;4.60;3.20;;;;;;;30.79;28.15;97387.78;8413441;28;20574;-66
2021/07/30 11:44:19;;;;;;;3.67;2.70;;;;;;;30.84;27.77;97381.81;8415640;28;20269;-66
2021/07/30 11:48:23;;;;;;;6.97;2.97;;;;;;;30.58;27.80;97386.22;8415475;28;20207;-66
2021/07/30 11:52:26;;;;;;;8.37;3.40;;;;;;;30.42;28.37;97386.66;8415360;28;20220;-67
2021/07/30 11:56:42;;;;;;;3.30;2.97;;;;;;;30.69;27.47;97376.75;8421517;28;20340;-68
2021/07/30 12:00:45;;;;;;;7.20;3.40;;;;;;;30.92;27.21;97373.59;8421556;28;20227;-66
2021/07/30 12:04:53;;;;;;;6.53;2.90;;;;;;;30.95;26.98;97365.13;8421518;28;20211;-66
2021/07/30 12:08:57;;;;;;;3.17;2.87;;;;;;;30.62;27.00;97365.25;8421753;28;20387;-66
2021/07/30 12:13:01;;;;;;;6.13;3.30;;;;;;;31.06;27.98;97365.50;8417805;28;20606;-66
2021/07/30 12:17:06;;;;;;;9.10;3.43;;;;;;;31.36;27.75;97353.19;8395776;28;20275;-66
2021/07/30 12:21:13;;;;;;;10.37;3.43;;;;;;;30.93;26.97;97345.00;8403546;28;20520;-66
2021/07/30 12:25:33;;;;;;;6.00;3.07;;;;;;;30.67;27.33;97337.88;8389939;28;20516;-67
2021/07/30 12:29:41;;;;;;;4.17;3.10;;;;;;;30.68;26.45;97323.50;8415828;28;20391;-66
2021/07/30 12:33:46;;;;;;;4.83;3.30;;;;;;;31.07;26.39;97311.00;8420527;28;20276;-66
2021/07/30 12:38:03;;;;;;;4.73;3.60;;;;;;;30.66;26.34;97313.03;8415263;28;20221;-66
2021/07/30 12:42:17;;;;;;;4.63;3.10;;;;;;;30.81;26.51;97310.09;8395441;28;20210;-66
2021/07/30 12:46:38;;;;;;;5.03;3.40;;;;;;;30.82;26.21;97295.66;8387167;28;20382;-66
2021/07/30 12:50:42;;;;;;;8.00;3.63;;;;;;;30.29;26.42;97288.69;8387062;28;20267;-66
2021/07/30 12:54:47;;;;;;;6.60;3.63;;;;;;;30.85;26.50;97286.44;8386915;28;20431;-67
2021/07/30 12:58:53;;;;;;;3.73;3.27;;;;;;;30.46;26.75;97289.03;8389333;28;20226;-68
2021/07/30 13:02:59;;;;;;;4.37;3.50;;;;;;;30.65;26.90;97283.84;8401566;28;20261;-68
2021/07/30 13:07:03;;;;;;;8.23;3.63;;;;;;;30.27;27.64;97269.34;8416514;28;20528;-67
2021/07/30 13:11:07;;;;;;;5.40;3.93;;;;;;;30.37;28.54;97267.09;8386647;28;20228;-66
2021/07/30 13:15:11;;;;;;;5.20;3.67;;;;;;;30.84;27.99;97256.19;8397356;28;20515;-67
2021/07/30 13:19:14;;;;;;;9.23;4.00;;;;;;;30.96;27.93;97259.03;8392854;28;20494;-73
2021/07/30 13:23:18;;;;;;;5.00;3.93;;;;;;;30.75;27.99;97257.50;8401849;28;20194;-68
2021/07/30 13:27:22;;;;;;;8.23;4.10;;;;;;;30.89;27.94;97248.34;8405752;28;20201;-67
2021/07/30 13:31:25;;;;;;;22.37;4.90;;;;;;;31.05;28.17;97246.22;8385803;28;20200;-67
2021/07/30 13:35:28;;;;;;;6.90;4.20;;;;;;;30.74;27.92;97251.31;8385553;28;20503;-67
2021/07/30 13:39:31;;;;;;;7.63;4.00;;;;;;;30.75;28.03;97250.28;8385530;28;20273;-68
2021/07/30 13:43:39;;;;;;;9.00;4.37;;;;;;;31.12;29.04;97234.44;8385311;28;20234;-67
2021/07/30 13:47:42;;;;;;;5.87;4.10;;;;;;;30.82;28.65;97231.53;8385254;28;20211;-67
2021/07/30 13:51:45;;;;;;;15.27;4.90;;;;;;;30.56;29.63;97229.84;8384942;28;20220;-68
2021/07/30 13:55:48;;;;;;;7.97;4.17;;;;;;;30.04;30.52;97221.78;8385060;28;20223;-67
2021/07/30 13:59:55;;;;;;;7.53;4.33;;;;;;;29.66;30.41;97233.13;8384549;28;20237;-67
2021/07/30 14:03:58;;;;;;;6.37;4.63;;;;;;;30.16;29.83;97205.97;8407814;28;20207;-66
2021/07/30 14:08:02;;;;;;;5.30;4.73;;;;;;;30.50;30.47;97207.47;8417967;28;20284;-67
2021/07/30 14:12:07;;;;;;;9.97;4.50;;;;;;;30.21;31.18;97212.31;8417435;28;20503;-67
2021/07/30 14:16:16;;;;;;;5.50;4.60;;;;;;;30.42;30.60;97209.56;8416786;28;20537;-67
2021/07/30 14:20:20;;;;;;;5.60;4.47;;;;;;;30.37;30.66;97202.19;8417021;28;20217;-67
2021/07/30 14:24:24;;;;;;;6.70;4.67;;;;;;;30.23;31.29;97192.56;8417172;28;20207;-68
2021/07/30 14:28:28;;;;;;;5.33;4.83;;;;;;;30.34;31.71;97186.59;8417036;28;20504;-67
2021/07/30 14:32:33;;;;;;;5.33;4.40;;;;;;;30.17;32.44;97181.69;8416898;28;20563;-67
2021/07/30 14:36:36;;;;;;;9.23;4.83;;;;;;;29.84;32.75;97175.69;8416575;28;20285;-67
2021/07/30 14:40:40;;;;;;;5.83;4.83;;;;;;;29.89;32.34;97178.53;8416785;28;20205;-67
2021/07/30 14:44:43;;;;;;;7.50;4.53;;;;;;;29.85;32.49;97162.09;8416770;28;20393;-68
2021/07/30 14:48:50;;;;;;;7.67;4.90;;;;;;;29.66;33.22;97155.75;8416815;28;20388;-67
2021/07/30 14:52:54;;;;;;;6.97;4.93;;;;;;;30.16;32.65;97145.38;8416431;28;20232;-67
2021/07/30 14:56:58;;;;;;;8.40;4.97;;;;;;;30.16;32.46;97149.91;8416239;28;20227;-68
2021/07/30 15:01:05;;;;;;;7.43;4.90;;;;;;;29.87;32.32;97148.56;8416093;28;20227;-68
2021/07/30 15:05:10;;;;;;;8.37;4.60;;;;;;;29.71;33.27;97147.16;8416137;28;20202;-68
2021/07/30 15:09:13;;;;;;;7.47;5.00;;;;;;;29.67;32.81;97145.94;8415094;28;20189;-69
2021/07/30 15:13:18;;;;;;;6.27;4.80;;;;;;;29.90;33.56;97150.81;8415994;28;20196;-69
2021/07/30 15:17:23;;;;;;;12.87;5.07;;;;;;;29.81;33.86;97145.69;8415553;28;20597;-69
2021/07/30 15:21:28;;;;;;;6.93;4.63;;;;;;;29.52;34.22;97147.00;8416165;28;20213;-68
2021/07/30 15:25:32;;;;;;;6.33;4.63;;;;;;;29.62;34.46;97146.53;8415524;28;20208;-67
2021/07/30 15:29:36;;;;;;;8.37;5.03;;;;;;;29.61;34.08;97144.94;8418841;28;20199;-68
2021/07/30 15:33:40;;;;;;;5.20;4.70;;;;;;;29.66;34.12;97142.44;8422708;28;20220;-67
2021/07/30 15:37:44;;;;;;;6.93;5.17;;;;;;;29.42;34.67;97142.09;8422347;28;20292;-68
2021/07/30 15:41:47;;;;;;;7.00;4.77;;;;;;;28.95;35.17;97146.59;8422482;28;20205;-69
2021/07/30 15:45:50;;;;;;;5.57;4.70;;;;;;;28.79;35.83;97144.34;8422368;28;20201;-70
2021/07/30 15:49:53;;;;;;;8.40;4.67;;;;;;;28.96;35.46;97142.09;8422004;28;20389;-68
2021/07/30 15:54:06;;;;;;;9.67;5.23;;;;;;;28.71;36.20;97150.72;8421362;28;20282;-66
2021/07/30 15:58:09;;;;;;;6.90;4.80;;;;;;;28.98;35.52;97137.41;8421046;28;20541;-66
2021/07/30 16:02:15;;;;;;;6.50;4.77;;;;;;;28.90;35.37;97143.75;8412691;28;20239;-65
2021/07/30 16:06:21;;;;;;;8.43;4.80;;;;;;;29.10;35.06;97133.06;8391139;28;20198;-65
2021/07/30 16:10:27;;;;;;;7.73;4.77;;;;;;;29.21;35.46;97126.34;8399321;28;20265;-65
2021/07/30 16:14:31;;;;;;;5.63;4.80;;;;;;;29.18;35.56;97118.75;8387941;28;20214;-65
2021/07/30 16:18:35;;;;;;;5.97;4.77;;;;;;;29.13;35.50;97107.88;8387827;28;20242;-65
2021/07/30 16:22:40;;;;;;;5.27;4.77;;;;;;;29.16;35.66;97120.78;8387644;28;20211;-65
2021/07/30 16:26:47;;;;;;;5.57;4.67;;;;;;;29.13;35.78;97115.88;8387800;28;20238;-65
2021/07/30 16:30:50;;;;;;;6.07;4.63;;;;;;;28.85;36.32;97115.03;8386714;28;20201;-64
2021/07/30 16:34:59;;;;;;;5.83;4.50;;;;;;;28.88;35.99;97115.66;8386024;28;20199;-65
2021/07/30 16:39:07;;;;;;;7.07;4.80;;;;;;;28.85;36.49;97130.22;8392681;28;20229;-65
2021/07/30 16:43:12;;;;;;;5.40;4.70;;;;;;;28.77;36.71;97128.56;8401377;28;20198;-65
2021/07/30 16:47:21;;;;;;;8.10;5.07;;;;;;;28.70;36.85;97137.59;8402832;28;20212;-64
2021/07/30 16:51:29;;;;;;;6.17;4.87;;;;;;;28.65;37.02;97139.03;8402610;28;20280;-64
2021/07/30 16:55:36;;;;;;;6.27;4.97;;;;;;;28.56;37.09;97131.41;8404796;28;20198;-65
2021/07/30 16:59:43;;;;;;;6.20;4.90;;;;;;;28.50;37.87;97127.66;8403763;28;20406;-65
2021/07/30 17:03:49;;;;;;;6.63;5.07;;;;;;;28.46;37.53;97118.44;8404381;28;20230;-64
2021/07/30 17:07:56;;;;;;;10.97;4.67;;;;;;;28.35;37.91;97116.38;8405178;28;20204;-64
2021/07/30 17:12:06;;;;;;;7.90;4.87;;;;;;;28.31;38.07;97123.13;8404706;28;20192;-65
2021/07/30 17:16:13;;;;;;;9.97;5.47;;;;;;;28.02;38.52;97133.09;8403733;28;20199;-65
2021/07/30 17:20:25;;;;;;;6.20;4.97;;;;;;;27.85;39.24;97135.22;8418304;28;20231;-65
2021/07/30 17:24:34;;;;;;;6.33;5.40;;;;;;;27.81;39.35;97139.31;8419191;28;20225;-65
2021/07/30 17:28:45;;;;;;;6.17;5.57;;;;;;;27.80;39.30;97133.19;8419173;28;20496;-65
2021/07/30 17:32:58;;;;;;;6.90;4.80;;;;;;;27.69;39.68;97121.25;8418489;28;20236;-65
2021/07/30 17:37:05;;;;;;;7.40;4.70;;;;;;;27.66;39.88;97136.78;8417264;28;20296;-65
2021/07/30 17:41:13;;;;;;;6.70;5.10;;;;;;;27.56;40.31;97136.31;8406175;28;20200;-66
2021/07/30 17:45:20;;;;;;;9.87;5.03;;;;;;;27.56;39.97;97129.16;8385945;28;20196;-66
2021/07/30 17:49:27;;;;;;;7.53;5.07;;;;;;;27.47;40.38;97125.84;8418623;28;20273;-66
2021/07/30 17:53:43;;;;;;;8.83;4.63;;;;;;;27.39;40.57;97133.16;8418089;28;20225;-65
2021/07/30 17:57:49;;;;;;;6.93;5.00;;;;;;;27.34;41.40;97132.91;8394034;28;20277;-65
2021/07/30 18:01:56;;;;;;;8.37;5.07;;;;;;;27.21;41.36;97137.09;8401996;28;20244;-66
2021/07/30 18:06:01;;;;;;;6.17;4.83;;;;;;;27.18;41.18;97129.50;8400505;28;20203;-65
2021/07/30 18:10:09;;;;;;;9.00;5.10;;;;;;;27.08;41.85;97131.69;8394987;28;20201;-66
2021/07/30 18:14:25;;;;;;;23.37;5.67;;;;;;;27.08;41.82;97135.16;8384417;28;20207;-66
2021/07/30 18:18:39;;;;;;;6.60;5.50;;;;;;;26.99;41.98;97140.81;8384322;28;20510;-66
2021/07/30 18:23:01;;;;;;;8.23;5.10;;;;;;;26.96;41.98;97143.84;8383533;28;20201;-66
2021/07/30 18:27:21;;;;;;;5.33;4.77;;;;;;;26.94;41.92;97143.22;8384085;28;20201;-66
2021/07/30 18:31:40;;;;;;;9.27;5.30;;;;;;;26.78;42.21;97155.75;8384021;28;20268;-66
2021/07/30 18:35:53;;;;;;;5.53;4.97;;;;;;;26.76;42.20;97151.66;8382367;28;20200;-66
2021/07/30 18:40:13;;;;;;;5.77;5.13;;;;;;;26.75;42.29;97155.31;8409391;28;20640;-66
2021/07/30 18:44:35;;;;;;;5.90;4.60;;;;;;;26.66;42.49;97159.94;8412680;28;20222;-66
2021/07/30 18:48:49;;;;;;;9.17;5.23;;;;;;;26.58;42.53;97160.84;8414489;28;20205;-65
2021/07/30 18:53:16;;;;;;;8.43;4.87;;;;;;;26.50;42.72;97153.84;8415433;28;20261;-66
2021/07/30 19:02:39;;;;;;;8.13;5.20;;;;;;;26.33;43.12;97141.78;8413940;28;20549;-66
2021/07/30 19:06:53;;;;;;;7.73;5.30;;;;;;;26.25;43.15;97144.56;8416015;28;20217;-66
2021/07/30 19:11:13;;;;;;;10.87;5.23;;;;;;;26.20;43.19;97149.59;8415966;28;20224;-66
2021/07/30 19:15:30;;;;;;;7.83;5.63;;;;;;;26.11;43.55;97147.06;8416022;28;20272;-66
2021/07/30 19:19:49;;;;;;;7.37;5.80;;;;;;;26.05;43.67;97154.97;8415062;28;20234;-66
2021/07/30 19:24:10;;;;;;;11.90;5.50;;;;;;;25.93;43.51;97155.44;8415284;28;20199;-66
2021/07/30 19:28:38;;;;;;;12.60;5.63;;;;;;;25.83;44.09;97165.47;8415503;28;20204;-66
2021/07/30 19:33:07;;;;;;;8.23;5.67;;;;;;;25.80;43.97;97167.66;8415872;28;20202;-66
2021/07/30 19:37:33;;;;;;;7.90;5.67;;;;;;;25.86;44.07;97175.72;8415674;28;20197;-66
2021/07/30 19:41:49;;;;;;;6.93;5.60;;;;;;;25.75;44.48;97192.91;8414303;28;20200;-66